createdAt,value
2019-03-27T00:01:47.416Z,3.57
2019-03-27T00:04:17.918Z,3.90
2019-03-27T00:06:47.344Z,3.73
2019-03-27T00:09:16.705Z,3.53
2019-03-27T00:11:46.168Z,4.20
2019-03-27T00:14:15.721Z,3.47
2019-03-27T00:16:45.736Z,3.77
2019-03-27T00:19:16.604Z,3.80
2019-03-27T00:21:46.040Z,3.60
2019-03-27T00:24:15.687Z,4.03
2019-03-27T00:26:45.802Z,3.80
2019-03-27T00:29:16.941Z,3.67
2019-03-27T00:31:46.370Z,4.30
2019-03-27T00:34:15.862Z,4.70
2019-03-27T00:36:45.862Z,4.50
2019-03-27T00:39:15.886Z,4.27
2019-03-27T00:41:45.878Z,4.07
2019-03-27T00:44:15.918Z,5.07
2019-03-27T00:46:45.911Z,5.40
2019-03-27T00:49:15.954Z,4.70
2019-03-27T00:51:46.031Z,4.73
2019-03-27T00:54:16.067Z,5.67
2019-03-27T00:56:46.078Z,4.43
2019-03-27T00:59:19.120Z,5.60
2019-03-27T01:01:47.244Z,5.57
2019-03-27T01:04:16.745Z,5.27
2019-03-27T01:06:51.252Z,5.20
2019-03-27T01:09:21.910Z,5.47
2019-03-27T01:11:54.120Z,5.03
2019-03-27T01:14:23.637Z,4.40
2019-03-27T01:16:53.131Z,4.93
2019-03-27T01:19:22.591Z,5.27
2019-03-27T01:21:52.056Z,5.03
2019-03-27T01:24:21.572Z,5.13
2019-03-27T01:26:51.004Z,5.00
2019-03-27T01:29:20.443Z,4.90
2019-03-27T01:31:49.866Z,6.00
2019-03-27T01:34:19.234Z,5.17
2019-03-27T01:36:50.286Z,5.37
2019-03-27T01:39:19.728Z,5.00
2019-03-27T01:41:49.151Z,5.87
2019-03-27T01:44:18.626Z,5.73
2019-03-27T01:46:51.065Z,5.73
2019-03-27T01:49:20.499Z,5.67
2019-03-27T01:51:49.986Z,5.50
2019-03-27T01:54:19.412Z,5.67
2019-03-27T01:56:48.762Z,6.53
2019-03-27T01:59:18.202Z,6.33
2019-03-27T02:01:47.623Z,5.53
2019-03-27T02:04:17.067Z,5.53
2019-03-27T02:06:46.674Z,5.40
2019-03-27T02:09:16.770Z,5.60
2019-03-27T02:11:46.797Z,5.33
2019-03-27T02:14:16.813Z,5.70
2019-03-27T02:16:46.650Z,5.80
2019-03-27T02:19:16.672Z,6.30
2019-03-27T02:21:46.756Z,6.00
2019-03-27T02:24:16.802Z,6.33
2019-03-27T02:26:46.856Z,7.23
2019-03-27T02:29:16.812Z,6.87
2019-03-27T02:31:46.804Z,7.07
2019-03-27T02:34:16.756Z,7.67
2019-03-27T02:36:46.805Z,7.40
2019-03-27T02:39:17.851Z,7.43
2019-03-27T02:41:47.265Z,7.90
2019-03-27T02:44:16.904Z,8.10
2019-03-27T02:46:46.905Z,7.83
2019-03-27T02:49:16.927Z,7.60
2019-03-27T02:51:46.998Z,8.03
2019-03-27T02:54:16.948Z,8.20
2019-03-27T02:56:49.309Z,8.47
2019-03-27T02:59:18.759Z,8.00
2019-03-27T03:01:48.416Z,8.43
2019-03-27T03:04:18.064Z,8.43
2019-03-27T03:06:47.544Z,8.43
2019-03-27T03:09:17.037Z,8.13
2019-03-27T03:11:47.068Z,8.00
2019-03-27T03:14:17.136Z,7.47
2019-03-27T03:16:47.060Z,8.50
2019-03-27T03:19:18.129Z,7.10
2019-03-27T03:21:47.644Z,7.97
2019-03-27T03:24:17.258Z,7.17
2019-03-27T03:26:50.741Z,7.27
2019-03-27T03:29:18.299Z,7.50
2019-03-27T03:31:47.736Z,7.07
2019-03-27T03:34:17.289Z,7.27
2019-03-27T03:36:47.290Z,7.30
2019-03-27T03:39:17.351Z,7.13
2019-03-27T03:41:47.317Z,7.57
2019-03-27T03:44:17.430Z,7.07
2019-03-27T03:46:59.424Z,7.47
2019-03-27T03:49:18.443Z,7.70
2019-03-27T03:51:47.945Z,7.67
2019-03-27T03:54:18.665Z,7.60
2019-03-27T03:56:50.532Z,6.83
2019-03-27T03:59:20.567Z,7.80
2019-03-27T04:01:53.142Z,8.43
2019-03-27T04:04:23.149Z,7.20
2019-03-27T04:06:55.671Z,8.00
2019-03-27T04:09:25.150Z,6.47
2019-03-27T04:11:54.698Z,7.20
2019-03-27T04:14:24.109Z,8.07
2019-03-27T04:16:53.568Z,7.07
2019-03-27T04:19:22.991Z,7.50
2019-03-27T04:21:52.350Z,7.00
2019-03-27T04:24:21.710Z,8.20
2019-03-27T04:26:51.146Z,7.17
2019-03-27T04:29:20.572Z,7.27
2019-03-27T04:31:49.999Z,7.60
2019-03-27T04:34:19.481Z,7.33
2019-03-27T04:36:48.991Z,7.23
2019-03-27T04:39:18.415Z,7.77
2019-03-27T04:41:47.777Z,8.30
2019-03-27T04:44:17.692Z,6.60
2019-03-27T04:46:47.700Z,7.50
2019-03-27T04:49:17.690Z,7.27
2019-03-27T04:51:47.847Z,6.70
2019-03-27T04:54:17.946Z,6.50
2019-03-27T04:56:48.451Z,6.63
2019-03-27T04:59:18.190Z,7.50
2019-03-27T05:01:48.319Z,7.53
2019-03-27T05:04:18.555Z,7.23
2019-03-27T05:06:48.615Z,7.50
2019-03-27T05:09:18.654Z,6.20
2019-03-27T05:11:48.792Z,6.87
2019-03-27T05:14:19.127Z,6.50
2019-03-27T05:16:49.279Z,6.60
2019-03-27T05:19:19.361Z,6.13
2019-03-27T05:21:49.581Z,6.03
2019-03-27T05:24:19.644Z,7.97
2019-03-27T05:26:49.777Z,6.47
2019-03-27T05:29:19.881Z,5.90
2019-03-27T05:31:50.024Z,7.80
2019-03-27T05:34:20.111Z,7.60
2019-03-27T05:36:50.246Z,7.13
2019-03-27T05:39:20.363Z,7.37
2019-03-27T05:41:50.505Z,7.43
2019-03-27T05:44:20.583Z,7.07
2019-03-27T05:46:50.623Z,6.80
2019-03-27T05:49:20.075Z,7.30
2019-03-27T05:51:49.605Z,7.87
2019-03-27T05:54:19.119Z,7.13
2019-03-27T05:56:48.653Z,7.47
2019-03-27T05:59:18.095Z,7.50
2019-03-27T06:01:47.605Z,7.00
2019-03-27T06:04:17.045Z,7.87
2019-03-27T06:06:46.569Z,7.70
2019-03-27T06:09:16.010Z,9.23
2019-03-27T06:11:45.449Z,7.17
2019-03-27T06:14:14.875Z,7.97
2019-03-27T06:16:47.095Z,8.23
2019-03-27T06:19:16.533Z,8.03
2019-03-27T06:21:45.981Z,7.40
2019-03-27T06:24:15.398Z,7.10
2019-03-27T06:26:44.871Z,6.73
2019-03-27T06:29:15.846Z,7.90
2019-03-27T06:31:45.567Z,7.10
2019-03-27T06:34:14.995Z,6.63
2019-03-27T06:36:44.451Z,7.07
2019-03-27T06:39:13.948Z,6.87
2019-03-27T06:41:43.425Z,6.03
2019-03-27T06:44:12.853Z,6.33
2019-03-27T06:46:43.988Z,5.87
2019-03-27T06:49:13.491Z,5.87
2019-03-27T06:51:42.907Z,5.97
2019-03-27T06:54:12.283Z,6.63
2019-03-27T06:56:41.732Z,7.10
2019-03-27T06:59:11.161Z,7.37
2019-03-27T07:01:40.579Z,7.47
2019-03-27T07:04:11.049Z,7.17
2019-03-27T07:06:40.590Z,7.40
2019-03-27T07:09:10.027Z,7.57
2019-03-27T07:11:39.373Z,8.47
2019-03-27T07:14:08.841Z,6.60
2019-03-27T07:16:38.317Z,6.77
2019-03-27T07:19:07.817Z,7.23
2019-03-27T07:21:37.414Z,7.03
2019-03-27T07:24:06.866Z,5.70
2019-03-27T07:26:36.313Z,7.23
2019-03-27T07:29:05.762Z,7.03
2019-03-27T07:31:35.192Z,8.20
2019-03-27T07:34:04.787Z,6.73
2019-03-27T07:36:34.229Z,7.10
2019-03-27T07:39:10.851Z,6.93
2019-03-27T07:41:36.807Z,6.10
2019-03-27T07:44:07.330Z,6.53
2019-03-27T07:46:36.764Z,6.27
2019-03-27T07:49:06.286Z,5.20
2019-03-27T07:51:36.719Z,5.93
2019-03-27T07:54:07.120Z,5.33
2019-03-27T07:56:38.250Z,6.40
2019-03-27T07:59:07.767Z,5.77
2019-03-27T08:01:37.218Z,5.73
2019-03-27T08:04:06.676Z,5.97
2019-03-27T08:06:37.182Z,5.20
2019-03-27T08:09:08.089Z,5.40
2019-03-27T08:11:37.657Z,5.90
2019-03-27T08:14:07.170Z,5.87
2019-03-27T08:16:36.606Z,4.70
2019-03-27T08:19:07.799Z,4.37
2019-03-27T08:21:37.104Z,4.10
2019-03-27T08:24:06.572Z,3.70
2019-03-27T08:26:36.074Z,3.87
2019-03-27T08:29:05.528Z,3.67
2019-03-27T08:31:34.958Z,3.40
2019-03-27T08:34:04.578Z,3.63
2019-03-27T08:36:34.011Z,3.23
2019-03-27T08:39:04.795Z,2.70
2019-03-27T08:41:34.252Z,3.43
2019-03-27T08:44:03.701Z,3.20
2019-03-27T08:46:33.144Z,3.40
2019-03-27T08:49:02.651Z,3.30
2019-03-27T08:51:32.108Z,3.00
2019-03-27T08:54:01.648Z,3.03
2019-03-27T08:56:31.092Z,3.00
2019-03-27T08:59:00.952Z,3.20
2019-03-27T09:01:30.327Z,2.60
2019-03-27T09:04:00.412Z,2.67
2019-03-27T09:06:34.083Z,3.03
2019-03-27T09:09:02.543Z,2.40
2019-03-27T09:11:33.074Z,3.90
2019-03-27T09:14:02.570Z,2.80
2019-03-27T09:16:32.015Z,3.53
2019-03-27T09:19:01.439Z,3.13
2019-03-27T09:21:31.170Z,3.27
2019-03-27T09:24:01.286Z,3.07
2019-03-27T09:26:31.379Z,3.47
2019-03-27T09:29:01.645Z,3.17
2019-03-27T09:31:43.952Z,2.47
2019-03-27T09:34:03.750Z,3.20
2019-03-27T09:36:33.193Z,3.20
2019-03-27T09:39:02.680Z,2.93
2019-03-27T09:41:32.151Z,3.43
2019-03-27T09:44:02.545Z,3.27
2019-03-27T09:46:32.198Z,3.23
2019-03-27T09:49:01.549Z,2.90
2019-03-27T09:51:30.924Z,3.40
2019-03-27T09:54:00.411Z,3.10
2019-03-27T09:56:30.003Z,2.33
2019-03-27T09:58:59.480Z,2.53
2019-03-27T10:01:28.859Z,2.30
2019-03-27T10:03:58.202Z,2.50
2019-03-27T10:06:27.554Z,2.57
2019-03-27T10:08:56.920Z,2.23
2019-03-27T10:11:26.355Z,2.77
2019-03-27T10:13:55.782Z,2.90
2019-03-27T10:16:25.279Z,2.70
2019-03-27T10:18:54.753Z,3.37
2019-03-27T10:21:24.236Z,2.77
2019-03-27T10:23:53.607Z,2.87
2019-03-27T10:26:23.040Z,3.17
2019-03-27T10:28:52.555Z,3.63
2019-03-27T10:31:22.124Z,3.47
2019-03-27T10:33:51.479Z,3.03
2019-03-27T10:36:20.899Z,2.67
2019-03-27T10:38:50.271Z,3.30
2019-03-27T10:41:19.730Z,2.97
2019-03-27T10:43:49.164Z,2.30
2019-03-27T10:46:18.629Z,2.10
2019-03-27T10:48:52.829Z,2.40
2019-03-27T10:51:19.115Z,2.20
2019-03-27T10:53:48.476Z,2.30
2019-03-27T10:56:17.895Z,2.47
2019-03-27T10:58:47.347Z,2.20
2019-03-27T11:01:16.760Z,2.10
2019-03-27T11:03:46.261Z,1.87
2019-03-27T11:06:15.648Z,2.50
2019-03-27T11:08:45.157Z,2.20
2019-03-27T11:11:17.349Z,2.90
2019-03-27T11:13:46.787Z,2.80
2019-03-27T11:16:16.222Z,3.20
2019-03-27T11:18:45.690Z,3.00
2019-03-27T11:21:16.030Z,2.80
2019-03-27T11:23:45.479Z,3.30
2019-03-27T11:26:16.047Z,2.93
2019-03-27T11:28:45.651Z,2.90
2019-03-27T11:31:15.090Z,3.10
2019-03-27T11:33:44.528Z,3.10
2019-03-27T11:36:13.979Z,3.00
2019-03-27T11:38:43.399Z,3.10
2019-03-27T11:41:12.841Z,3.70
2019-03-27T11:43:54.216Z,3.10
2019-03-27T11:46:13.405Z,3.70
2019-03-27T11:48:42.840Z,3.33
2019-03-27T11:51:12.365Z,3.90
2019-03-27T11:53:41.745Z,3.33
2019-03-27T11:56:12.303Z,3.27
2019-03-27T11:58:41.812Z,3.03
2019-03-27T12:01:11.253Z,3.43
2019-03-27T12:03:40.686Z,3.10
2019-03-27T12:06:10.153Z,3.40
2019-03-27T12:08:39.574Z,2.80
2019-03-27T12:11:09.123Z,3.27
2019-03-27T12:13:38.795Z,3.10
2019-03-27T12:16:08.907Z,3.20
2019-03-27T12:18:38.911Z,3.53
2019-03-27T12:21:08.970Z,3.10
2019-03-27T12:23:39.130Z,3.40
2019-03-27T12:26:09.559Z,3.00
2019-03-27T12:28:39.278Z,3.70
2019-03-27T12:31:09.497Z,3.63
2019-03-27T12:33:39.530Z,4.00
2019-03-27T12:36:09.687Z,3.10
2019-03-27T12:38:39.840Z,3.97
2019-03-27T12:41:10.371Z,3.63
2019-03-27T12:43:39.993Z,3.40
2019-03-27T12:46:10.218Z,4.10
2019-03-27T12:48:40.217Z,3.53
2019-03-27T12:51:13.024Z,3.60
2019-03-27T12:53:41.490Z,3.77
2019-03-27T12:56:11.008Z,4.03
2019-03-27T12:58:41.419Z,3.80
2019-03-27T13:01:10.878Z,4.17
2019-03-27T13:03:44.217Z,3.80
2019-03-27T13:06:13.462Z,3.90
2019-03-27T13:08:42.909Z,3.13
2019-03-27T13:11:12.331Z,3.80
2019-03-27T13:13:41.780Z,3.30
2019-03-27T13:16:11.412Z,4.00
2019-03-27T13:18:41.559Z,3.30
2019-03-27T13:21:11.604Z,3.87
2019-03-27T13:23:42.457Z,4.33
2019-03-27T13:26:11.963Z,3.73
2019-03-27T13:28:48.629Z,3.40
2019-03-27T13:31:13.091Z,4.00
2019-03-27T13:33:42.543Z,2.50
2019-03-27T13:36:12.345Z,4.03
2019-03-27T13:38:42.893Z,3.27
2019-03-27T13:41:12.466Z,3.47
2019-03-27T13:43:42.671Z,3.20
2019-03-27T13:46:12.709Z,3.53
2019-03-27T13:48:42.830Z,3.63
2019-03-27T13:51:13.009Z,3.17
2019-03-27T13:53:43.090Z,2.87
2019-03-27T13:56:13.183Z,2.57
2019-03-27T13:58:43.530Z,3.27
2019-03-27T14:01:13.579Z,3.23
2019-03-27T14:03:43.666Z,3.33
2019-03-27T14:06:13.750Z,3.30
2019-03-27T14:08:43.888Z,3.33
2019-03-27T14:11:14.055Z,3.20
2019-03-27T14:13:44.134Z,3.07
2019-03-27T14:16:14.223Z,3.00
2019-03-27T14:18:44.375Z,2.80
2019-03-27T14:21:14.438Z,3.63
2019-03-27T14:23:44.615Z,3.00
2019-03-27T14:26:14.684Z,2.80
2019-03-27T14:28:44.831Z,2.90
2019-03-27T14:31:14.908Z,3.13
2019-03-27T14:33:44.416Z,3.50
2019-03-27T14:36:13.949Z,4.47
2019-03-27T14:38:43.446Z,4.33
2019-03-27T14:41:12.882Z,4.27
2019-03-27T14:43:42.491Z,5.00
2019-03-27T14:46:11.957Z,4.93
2019-03-27T14:48:41.385Z,5.57
2019-03-27T14:51:10.979Z,5.87
2019-03-27T14:53:40.490Z,5.73
2019-03-27T14:56:10.182Z,7.00
2019-03-27T14:58:39.610Z,6.03
2019-03-27T15:01:11.121Z,6.57
2019-03-27T15:03:40.200Z,7.20
2019-03-27T15:06:09.646Z,6.53
2019-03-27T15:08:39.096Z,7.10
2019-03-27T15:11:08.642Z,7.80
2019-03-27T15:13:38.182Z,7.90
2019-03-27T15:16:07.786Z,7.43
2019-03-27T15:18:37.212Z,7.42
2019-03-27T15:21:06.810Z,7.27
2019-03-27T15:23:36.374Z,7.67
2019-03-27T15:26:05.742Z,7.03
2019-03-27T15:28:35.280Z,7.30
2019-03-27T15:31:05.024Z,6.87
2019-03-27T15:33:34.494Z,7.90
2019-03-27T15:36:04.015Z,7.07
2019-03-27T15:38:33.464Z,6.57
2019-03-27T15:41:02.961Z,7.50
2019-03-27T15:43:32.561Z,6.77
2019-03-27T15:46:01.990Z,6.13
2019-03-27T15:48:31.558Z,6.93
2019-03-27T15:51:00.980Z,6.07
2019-03-27T15:53:30.478Z,6.03
2019-03-27T15:55:59.921Z,5.60
2019-03-27T15:58:31.086Z,6.50
2019-03-27T16:01:00.621Z,6.03
2019-03-27T16:03:30.094Z,6.43
2019-03-27T16:05:59.678Z,6.23
2019-03-27T16:08:30.770Z,6.07
2019-03-27T16:11:00.223Z,6.07
2019-03-27T16:13:31.286Z,6.00
2019-03-27T16:16:00.835Z,6.27
2019-03-27T16:18:30.264Z,6.93
2019-03-27T16:20:59.828Z,6.13
2019-03-27T16:23:32.183Z,6.60
2019-03-27T16:26:00.841Z,8.17
2019-03-27T16:28:30.354Z,7.23
2019-03-27T16:30:59.802Z,8.27
2019-03-27T16:33:29.257Z,7.13
2019-03-27T16:35:58.779Z,6.93
2019-03-27T16:38:28.235Z,6.80
2019-03-27T16:40:57.696Z,7.00
2019-03-27T16:43:27.224Z,6.00
2019-03-27T16:45:56.809Z,5.47
2019-03-27T16:48:26.343Z,5.90
2019-03-27T16:50:55.777Z,5.83
2019-03-27T16:53:25.232Z,5.17
2019-03-27T16:55:54.812Z,5.27
2019-03-27T16:58:24.274Z,5.90
2019-03-27T17:00:53.710Z,5.60
2019-03-27T17:03:24.294Z,5.70
2019-03-27T17:05:54.513Z,5.03
2019-03-27T17:08:24.184Z,6.17
2019-03-27T17:10:54.672Z,6.27
2019-03-27T17:13:24.157Z,7.77
2019-03-27T17:15:53.642Z,6.57
2019-03-27T17:18:23.418Z,7.43
2019-03-27T17:20:53.188Z,6.70
2019-03-27T17:23:23.061Z,6.07
2019-03-27T17:25:53.279Z,6.63
2019-03-27T17:28:23.221Z,6.40
2019-03-27T17:30:53.417Z,5.60
2019-03-27T17:33:23.428Z,5.47
2019-03-27T17:35:54.040Z,5.33
2019-03-27T17:38:23.688Z,6.17
2019-03-27T17:40:53.312Z,5.80
2019-03-27T17:43:22.775Z,6.23
2019-03-27T17:45:52.375Z,5.87
2019-03-27T17:48:21.838Z,5.87
2019-03-27T17:50:51.407Z,5.87
2019-03-27T17:53:31.043Z,6.33
2019-03-27T17:55:52.140Z,5.90
2019-03-27T17:58:21.635Z,6.80
2019-03-27T18:00:52.179Z,6.80
2019-03-27T18:03:21.703Z,10.83
2019-03-27T18:05:51.292Z,6.20
2019-03-27T18:08:20.888Z,6.13
2019-03-27T18:10:51.606Z,10.50
2019-03-27T18:13:21.116Z,9.47
2019-03-27T18:15:50.650Z,8.20
2019-03-27T18:18:22.958Z,5.83
2019-03-27T18:20:52.378Z,7.00
2019-03-27T18:23:21.989Z,6.93
2019-03-27T18:25:52.775Z,8.17
2019-03-27T18:28:23.735Z,8.13
2019-03-27T18:30:54.715Z,8.60
2019-03-27T18:33:25.240Z,8.57
2019-03-27T18:35:54.995Z,7.33
2019-03-27T18:38:24.534Z,9.03
2019-03-27T18:40:54.076Z,11.23
2019-03-27T18:43:23.536Z,8.93
2019-03-27T18:45:54.276Z,9.37
2019-03-27T18:48:23.933Z,9.80
2019-03-27T18:50:53.465Z,8.57
2019-03-27T18:53:29.420Z,8.20
2019-03-27T18:56:18.592Z,9.50
2019-03-27T18:58:48.116Z,8.23
2019-03-27T19:01:17.572Z,20.30
2019-03-27T19:03:47.389Z,8.37
2019-03-27T19:06:16.838Z,8.67
2019-03-27T19:08:47.869Z,7.30
2019-03-27T19:11:17.547Z,8.40
2019-03-27T19:13:47.604Z,8.57
2019-03-27T19:16:17.245Z,8.10
2019-03-27T19:18:46.782Z,9.83
2019-03-27T19:21:18.067Z,8.10
2019-03-27T19:23:48.477Z,8.93
2019-03-27T19:26:19.290Z,11.27
2019-03-27T19:28:52.475Z,10.07
2019-03-27T19:31:24.311Z,9.20
2019-03-27T19:33:56.147Z,9.87
2019-03-27T19:36:25.613Z,8.97
2019-03-27T19:38:55.052Z,8.57
2019-03-27T19:41:27.228Z,8.37
2019-03-27T19:43:57.871Z,8.60
2019-03-27T19:46:27.482Z,8.70
2019-03-27T19:48:59.836Z,9.07
2019-03-27T19:54:26.951Z,8.63
2019-03-27T19:56:52.958Z,8.50
2019-03-27T19:59:23.159Z,8.53
2019-03-27T20:01:53.941Z,7.57
2019-03-27T20:04:24.713Z,8.73
2019-03-27T20:06:54.239Z,8.00
2019-03-27T20:09:24.822Z,8.33
2019-03-27T20:11:55.837Z,8.37
2019-03-27T20:14:25.347Z,9.43
2019-03-27T20:16:57.695Z,9.53
2019-03-27T20:19:27.196Z,8.87
2019-03-27T20:21:56.874Z,9.57
2019-03-27T20:24:40.209Z,11.33
2019-03-27T20:26:58.603Z,11.87
2019-03-27T20:29:29.667Z,11.53
2019-03-27T20:31:59.627Z,11.57
2019-03-27T20:34:29.185Z,10.57
2019-03-27T20:36:58.656Z,12.10
2019-03-27T20:39:28.112Z,11.87
2019-03-27T20:41:59.091Z,11.10
2019-03-27T20:44:28.628Z,10.60
2019-03-27T20:46:58.213Z,10.70
2019-03-27T20:49:27.856Z,11.40
2019-03-27T20:51:57.356Z,10.70
2019-03-27T20:54:26.795Z,11.30
2019-03-27T20:56:56.572Z,11.03
2019-03-27T20:59:27.275Z,13.27
2019-03-27T21:01:58.064Z,10.77
2019-03-27T21:04:27.640Z,10.10
2019-03-27T21:06:57.190Z,12.60
2019-03-27T21:09:27.617Z,12.13
2019-03-27T21:11:57.095Z,11.87
2019-03-27T21:14:26.979Z,11.43
2019-03-27T21:16:56.523Z,13.17
2019-03-27T21:19:26.281Z,11.97
2019-03-27T21:21:56.040Z,12.10
2019-03-27T21:24:25.529Z,14.20
2019-03-27T21:26:57.591Z,12.03
2019-03-27T21:29:27.079Z,12.00
2019-03-27T21:31:56.562Z,13.23
2019-03-27T21:34:26.217Z,13.40
2019-03-27T21:36:56.936Z,13.43
2019-03-27T21:39:26.453Z,13.87
2019-03-27T21:41:58.942Z,12.87
2019-03-27T21:44:28.423Z,13.50
2019-03-27T21:46:58.017Z,13.47
2019-03-27T21:49:27.596Z,13.07
2019-03-27T21:51:57.186Z,13.13
2019-03-27T21:54:26.675Z,14.30
2019-03-27T21:56:56.145Z,14.07
2019-03-27T21:59:25.603Z,13.70
2019-03-27T22:01:56.607Z,14.53
2019-03-27T22:04:26.085Z,14.80
2019-03-27T22:06:55.740Z,13.83
2019-03-27T22:09:25.193Z,13.27
2019-03-27T22:11:57.668Z,14.03
2019-03-27T22:14:27.174Z,13.30
2019-03-27T22:16:56.633Z,13.70
2019-03-27T22:19:27.739Z,12.87
2019-03-27T22:21:57.224Z,13.70
2019-03-27T22:24:26.705Z,12.33
2019-03-27T22:26:56.207Z,12.73
2019-03-27T22:29:25.673Z,12.73
2019-03-27T22:31:55.203Z,12.77
2019-03-27T22:34:24.670Z,12.73
2019-03-27T22:36:54.170Z,12.53
2019-03-27T22:39:23.633Z,12.03
2019-03-27T22:41:53.113Z,12.40
2019-03-27T22:44:22.598Z,12.03
2019-03-27T22:46:52.051Z,12.13
2019-03-27T22:49:21.521Z,13.23
2019-03-27T22:51:51.002Z,13.03
2019-03-27T22:54:20.475Z,12.17
2019-03-27T22:56:49.938Z,12.10
2019-03-27T22:59:19.420Z,12.10
2019-03-27T23:01:49.114Z,11.87
2019-03-27T23:04:19.002Z,12.97
2019-03-27T23:06:48.451Z,13.60
2019-03-27T23:09:17.989Z,11.37
2019-03-27T23:11:47.529Z,12.77
2019-03-27T23:14:17.186Z,11.60
2019-03-27T23:16:47.267Z,12.33
2019-03-27T23:19:17.477Z,10.98
2019-03-27T23:21:47.601Z,10.85
2019-03-27T23:24:20.421Z,10.93
2019-03-27T23:26:49.943Z,10.73
2019-03-27T23:29:19.656Z,11.40
2019-03-27T23:31:49.126Z,10.03
2019-03-27T23:34:18.606Z,10.50
2019-03-27T23:36:48.259Z,10.40
2019-03-27T23:39:18.813Z,10.53
2019-03-27T23:41:48.478Z,10.63
2019-03-27T23:44:18.567Z,9.53
2019-03-27T23:46:48.636Z,10.60
2019-03-27T23:49:18.772Z,10.67
2019-03-27T23:51:48.888Z,9.03
2019-03-27T23:54:19.010Z,11.13
2019-03-27T23:56:49.275Z,10.48
2019-03-27T23:59:19.245Z,10.00
